Weather, Runways
& NOTAMs

CYYZ - Toronto-Lester B. Pearson International
CYYZ 201800Z 27016G26KT 15SM BKN035 13/06 A2981 RMK SC7 SLP098 DENSITY ALT 600FT
Suggested Runways: Departures: 23, Arrivals: 24R
CYOW - Ottawa Macdonald-Cartier International
CYOW 201800Z 23021G33KT 15SM BKN040 BKN056 19/11 A2960 RMK CU5SC2 SLP026 DENSITY ALT 1400FT
Suggested Runway: 25
CYTZ - Billy Bishop Toronto City
CYTZ 201800Z AUTO 28023G31KT 9SM OVC038 14/07 A2979 RMK SLP090 DENSITY ALT 300FT
Suggested Runway: 26
CYXU - London International
CYXU 201800Z 31011KT 15SM BKN035 BKN050 10/06 A2988 RMK SC6SC1 SLP123
Suggested Runway: 33
CYHM - John C. Munro Hamilton International
CYHM 201800Z 27013G22KT 15SM SCT025 OVC035 14/08 A2982 RMK SC3SC5 SLP100 DENSITY ALT 1000FT
Suggested Runway: 30
CYKF - Region of Waterloo International
CYKF 201800Z AUTO 27019G26KT 9SM BKN026 BKN033 OVC046 11/06 A2984 RMK SLP108
Suggested Runway: 26
CYAM - Sault Ste. Marie
CYAM 201800Z 30018G26KT 25SM FEW020 FEW160 BKN280 09/04 A2995 RMK CU1AC1CI5 AC TR SLP149
Suggested Runway: 30
CYTR - Canadian Forces Base Trenton
CYTR 201800Z 22021G27KT 15SM FEW030 SCT080 18/10 A2969 RMK SC2AC2 SLP056
Suggested Runway: 24
CYOO - Toronto/Oshawa Executive
CYOO 201800Z AUTO 27019G32KT 9SM OVC038 15/07 A2977 RMK SLP085 DENSITY ALT 700FT
Suggested Runway: 30

NOTAMs

190357 CYYZ TORONTO/LESTER B.PEARSON INTL CYYZ NUGOP THREE DEP: LITMO TRANSITION (NUGOP3.LITMO) NOT AUTH 1904151724 TIL 1907041500 

190378 CYYZ TORONTO/LESTER B.PEARSON INTL CYYZ ILS RWY 15L APCH: ILS MINIMA: NOT AUTH 1904190100 TIL APRX 1907041600 

190379 CYYZ TORONTO/LESTER B.PEARSON INTL CYYZ ILS RWY 33R APCH: ILS MINIMA: NOT AUTH LOC/DME MINIMA TO READ 1080 (516) 1 RVR 50. DIST/ALT TABLE, CONSTANT DESCENT ANGLE AND RATE OF DESCENT INFORMATION NOT USABLE. 1904190100 TIL APRX 1907041600 

190380 CYYZ TORONTO/LESTER B.PEARSON INTL CYYZ RNAV (GNSS) Z RWY 15L: LPV AND LNAV/VNAV MINIMA: NOT AUTH LNAV MINIMA TO READ 1060 (503) 1 RVR 50. DIST/ALT TABLE, CONSTANT DESCENT ANGLE AND RATE OF DESCENT INFORMATION NOT USABLE. 1904190100 TIL APRX 1907041600 

190437 CYYZ TORONTO/LESTER B.PEARSON INTL CYYZ RNAV(GNSS) Z RWY 23, RNAV (GNSS) X RWY 23 APCH: LPV AND LNAV/VNAV MINIMA: NOT AUTH LNAV MINIMA: ALL CAT TO READ: 1020 (463) 1 RVR 50 DIST/ALT TABLE, CONSTANT DESCENT ANGLE AND RATE OF DESCENT INFO NOT USEABLE 1905011750 TIL APRX 1907041800 

190442 CYYZ TORONTO/LESTER B.PEARSON INTL CYYZ RNAV(GNSS) Z RWY 33R APCH: LETAG TO XUGUM MIN ALT TO READ 1220 (LNAV ONLY) LPV AND LNAV/VNAV MINIMA: NOT AUTH LNAV MINIMA TO READ 1060 (516) 1 RVR 50. DIST/ALT TABLE, CONSTANT DESCENT ANGLE AND RATE OF DESCENT INFO NO USABLE. 1905031254 TIL APRX 1907041600 

190493 CYYZ TORONTO/LESTER B.PEARSON INTL CYYZ TWY B1 AND TWY B BTN TWY S AND B3 CLSD 1905141400 TIL 1906102200 

190522 CYYZ TORONTO/LESTER B.PEARSON INTL CYYZ RWY 15L/33R CLSD, AVBL AS TWY 1905211100 TIL 1905212200 

190525 CYYZ TORONTO/LESTER B.PEARSON INTL CYYZ RWY 06L/24R CLSD MAY 21 0430-1000 1430-1800 1905210430 TIL 1905211800 

190526 CYYZ TORONTO/LESTER B.PEARSON INTL CYYZ TWY AK AND TWY A BTN TWY AJ AND AL CLSD 1905220430 TIL 1905221000 

190527 CYYZ TORONTO/LESTER B.PEARSON INTL CYYZ RWY 06R/24L CLSD MAY 22 0430-1000 MAY 23 0430-1000 1430-1800 1905220430 TIL 1905231800 

190354 CYOW OTTAWA/MACDONALD-CARTIER INTL CYOW RNAV (GNSS) Z RWY 14 APCH: LNAV/VNAV MINIMA: NOT AUTH LNAV MINIMA TO READ 760 (409) 1 DIST/ALT TABLE, CONSTANT DESCENT ANGLE AND RATE OF DESCENT INFO NOT USABLE 1100-1800 DLY 1905101100 TIL 1906051800 

190355 CYOW OTTAWA/MACDONALD-CARTIER INTL CYOW SID (VECTOR) OTTAWA FOUR DEP: DEP ROUTE RWY 04: NOT AUTH 1100-1800 DLY 1905101100 TIL 1906051800 

190356 CYOW OTTAWA/MACDONALD-CARTIER INTL CYOW RNAV (RNP) Y RWY 14 APCH: RNP 0.15 MINIMA: NOT AUTH 1100-1800 DLY 1905101100 TIL 1906051800 

190357 CYOW OTTAWA/MACDONALD-CARTIER INTL CYOW AD CHART: DEP PROC: RWY 04: NOT AUTH 1100-1800 DLY 1905101100 TIL 1906051800 

190365 CYOW OTTAWA/MACDONALD-CARTIER INTL CYOW APRON II EAST TAXILANE CLSD BTN TWY CC AND BB 1905161431 TIL 1905242000 

190385 CYOW OTTAWA/MACDONALD-CARTIER INTL CYOW DUE WIP TWY B CLSD FROM APN 1 TO 425 FT E OF APN 1 1905211000 TIL 1906112359 

190387 CYOW OTTAWA/MACDONALD-CARTIER INTL CYOW REDUCED VIS PROC RWY 07/25 NOT AUTH. RWY GUARD LGT U/S 1905211130 TIL 1905211930 

190158 CYXU LONDON CYXU TWY G CLSD BTN APN 5 AND 400 FT NORTH OF TWY F 1905131100 TIL 1905292100 

180389 CYHM HAMILTON CYHM AMEND PUB: APN V PERMANENTLY CLSD 

190052 CYHM HAMILTON CYHM RNAV (GNSS) Z RWY 24 APCH: LPV MINIMA: NOT AUTH LNAV/VNAV MINIMA: NOT AUTH LNAV MINIMA TO READ: 1260 (505) 1 1/2 DIST/ALT TABLE, CONSTANT DESCENT ANGLE AND RATE OF DESCENT INFO NOT USEABLE 1903082205 TIL APRX 1906061800 

190189 CYHM HAMILTON CYHM HAMILTON NINE DEP: RWY 06: NOT AUTH 1905172200 TIL APRX 1908131800 

190104 CYTR TRENTON CYTR FIRST 2951 FT RWY 24 CLSD DUE MAINT. THR 24 IS RELOCATED 2951 FT. NON STANDARED THR MARKINGS RWY 24. DECLARED DIST WITH RWY 06/24 LENGTH REDUCED:: RWY 06 TORA 7049 TODA 7049 ASDA 7049 LDA 7049 RWY 24 TORA 7049 TODA 7049 ASDA 7049 LDA 7049 1905201230 TIL 1905210030